sensor_id;sensor_type;location;lat;lon;timestamp;P1;durP1;ratioP1;P2;durP2;ratioP2
66087;SDS011;52872;52.994;6.940;2023-03-14T00:02:06;16.17;;;3.72;;
66087;SDS011;52872;52.994;6.940;2023-03-14T00:04:32;17.52;;;3.72;;
66087;SDS011;52872;52.994;6.940;2023-03-14T00:06:59;20.63;;;4.30;;
66087;SDS011;52872;52.994;6.940;2023-03-14T00:09:26;20.38;;;4.85;;
66087;SDS011;52872;52.994;6.940;2023-03-14T00:11:56;19.65;;;4.32;;
66087;SDS011;52872;52.994;6.940;2023-03-14T00:14:23;19.05;;;4.10;;
66087;SDS011;52872;52.994;6.940;2023-03-14T00:16:50;16.70;;;4.30;;
66087;SDS011;52872;52.994;6.940;2023-03-14T00:19:17;11.75;;;3.30;;
66087;SDS011;52872;52.994;6.940;2023-03-14T00:21:44;20.55;;;3.63;;
66087;SDS011;52872;52.994;6.940;2023-03-14T00:24:11;19.83;;;5.07;;
66087;SDS011;52872;52.994;6.940;2023-03-14T00:26:38;19.10;;;4.18;;
66087;SDS011;52872;52.994;6.940;2023-03-14T00:29:05;16.10;;;3.70;;
66087;SDS011;52872;52.994;6.940;2023-03-14T00:31:32;16.10;;;4.10;;
66087;SDS011;52872;52.994;6.940;2023-03-14T00:33:59;15.75;;;3.97;;
66087;SDS011;52872;52.994;6.940;2023-03-14T00:36:26;16.48;;;3.95;;
66087;SDS011;52872;52.994;6.940;2023-03-14T00:38:54;15.30;;;3.70;;
66087;SDS011;52872;52.994;6.940;2023-03-14T00:41:21;18.67;;;3.90;;
66087;SDS011;52872;52.994;6.940;2023-03-14T00:43:49;20.52;;;4.13;;
66087;SDS011;52872;52.994;6.940;2023-03-14T00:46:18;14.50;;;3.72;;
66087;SDS011;52872;52.994;6.940;2023-03-14T00:48:46;19.27;;;4.45;;
66087;SDS011;52872;52.994;6.940;2023-03-14T00:51:13;17.25;;;3.50;;
66087;SDS011;52872;52.994;6.940;2023-03-14T00:53:42;17.25;;;3.95;;
66087;SDS011;52872;52.994;6.940;2023-03-14T00:56:11;21.77;;;4.32;;
66087;SDS011;52872;52.994;6.940;2023-03-14T00:58:38;9.68;;;2.97;;
66087;SDS011;52872;52.994;6.940;2023-03-14T01:01:09;12.93;;;3.85;;
66087;SDS011;52872;52.994;6.940;2023-03-14T01:03:39;12.35;;;3.72;;
66087;SDS011;52872;52.994;6.940;2023-03-14T01:06:09;11.25;;;3.60;;
66087;SDS011;52872;52.994;6.940;2023-03-14T01:08:38;14.07;;;4.53;;
66087;SDS011;52872;52.994;6.940;2023-03-14T01:11:06;11.65;;;4.35;;
66087;SDS011;52872;52.994;6.940;2023-03-14T01:13:38;11.90;;;4.73;;
66087;SDS011;52872;52.994;6.940;2023-03-14T01:16:06;12.52;;;5.00;;
66087;SDS011;52872;52.994;6.940;2023-03-14T01:18:36;10.38;;;4.68;;
66087;SDS011;52872;52.994;6.940;2023-03-14T01:21:09;10.13;;;4.43;;
66087;SDS011;52872;52.994;6.940;2023-03-14T01:23:39;13.48;;;5.38;;
66087;SDS011;52872;52.994;6.940;2023-03-14T01:26:10;12.00;;;4.65;;
66087;SDS011;52872;52.994;6.940;2023-03-14T01:28:38;14.55;;;4.95;;
66087;SDS011;52872;52.994;6.940;2023-03-14T01:31:06;11.75;;;4.57;;
66087;SDS011;52872;52.994;6.940;2023-03-14T01:33:35;13.30;;;4.03;;
66087;SDS011;52872;52.994;6.940;2023-03-14T01:36:03;14.13;;;4.72;;
66087;SDS011;52872;52.994;6.940;2023-03-14T01:38:31;11.13;;;4.00;;
66087;SDS011;52872;52.994;6.940;2023-03-14T01:40:59;14.25;;;4.47;;
66087;SDS011;52872;52.994;6.940;2023-03-14T01:43:27;13.18;;;4.93;;
66087;SDS011;52872;52.994;6.940;2023-03-14T01:48:28;8.53;;;4.60;;
66087;SDS011;52872;52.994;6.940;2023-03-14T01:50:59;9.88;;;4.13;;
66087;SDS011;52872;52.994;6.940;2023-03-14T01:53:28;13.98;;;4.30;;
66087;SDS011;52872;52.994;6.940;2023-03-14T01:55:55;13.13;;;4.57;;
66087;SDS011;52872;52.994;6.940;2023-03-14T01:58:24;11.48;;;4.03;;
66087;SDS011;52872;52.994;6.940;2023-03-14T02:00:55;16.10;;;4.03;;
66087;SDS011;52872;52.994;6.940;2023-03-14T02:03:25;13.50;;;3.97;;
66087;SDS011;52872;52.994;6.940;2023-03-14T02:05:53;13.45;;;3.75;;
66087;SDS011;52872;52.994;6.940;2023-03-14T02:08:26;14.75;;;3.58;;
66087;SDS011;52872;52.994;6.940;2023-03-14T02:10:59;13.50;;;3.87;;
66087;SDS011;52872;52.994;6.940;2023-03-14T02:13:43;14.50;;;3.55;;
66087;SDS011;52872;52.994;6.940;2023-03-14T02:16:46;11.38;;;3.67;;
66087;SDS011;52872;52.994;6.940;2023-03-14T02:22:30;11.27;;;3.30;;
66087;SDS011;52872;52.994;6.940;2023-03-14T02:27:34;13.50;;;3.08;;
66087;SDS011;52872;52.994;6.940;2023-03-14T02:30:10;8.27;;;3.33;;
66087;SDS011;52872;52.994;6.940;2023-03-14T02:32:41;13.38;;;3.42;;
66087;SDS011;52872;52.994;6.940;2023-03-14T02:35:15;11.45;;;3.40;;
66087;SDS011;52872;52.994;6.940;2023-03-14T02:37:54;13.70;;;3.92;;
66087;SDS011;52872;52.994;6.940;2023-03-14T02:40:31;10.50;;;3.50;;
66087;SDS011;52872;52.994;6.940;2023-03-14T02:42:58;10.75;;;3.88;;
66087;SDS011;52872;52.994;6.940;2023-03-14T02:45:30;12.70;;;3.50;;
66087;SDS011;52872;52.994;6.940;2023-03-14T02:48:14;11.10;;;3.83;;
66087;SDS011;52872;52.994;6.940;2023-03-14T02:50:48;11.80;;;4.10;;
66087;SDS011;52872;52.994;6.940;2023-03-14T02:53:21;18.25;;;5.00;;
66087;SDS011;52872;52.994;6.940;2023-03-14T02:55:54;13.77;;;4.00;;
66087;SDS011;52872;52.994;6.940;2023-03-14T02:58:23;16.52;;;4.07;;
66087;SDS011;52872;52.994;6.940;2023-03-14T03:00:56;12.13;;;3.70;;
66087;SDS011;52872;52.994;6.940;2023-03-14T03:03:23;12.90;;;5.15;;
66087;SDS011;52872;52.994;6.940;2023-03-14T03:05:51;9.30;;;4.15;;
66087;SDS011;52872;52.994;6.940;2023-03-14T03:08:19;13.77;;;4.30;;
66087;SDS011;52872;52.994;6.940;2023-03-14T03:10:48;10.90;;;3.80;;
66087;SDS011;52872;52.994;6.940;2023-03-14T03:13:16;9.95;;;4.15;;
66087;SDS011;52872;52.994;6.940;2023-03-14T03:15:47;14.82;;;4.30;;
66087;SDS011;52872;52.994;6.940;2023-03-14T03:18:14;12.65;;;4.18;;
66087;SDS011;52872;52.994;6.940;2023-03-14T03:20:41;8.90;;;3.38;;
66087;SDS011;52872;52.994;6.940;2023-03-14T03:23:08;8.98;;;3.13;;
66087;SDS011;52872;52.994;6.940;2023-03-14T03:25:37;11.52;;;3.97;;
66087;SDS011;52872;52.994;6.940;2023-03-14T03:28:04;11.38;;;3.72;;
66087;SDS011;52872;52.994;6.940;2023-03-14T03:30:37;8.10;;;3.33;;
66087;SDS011;52872;52.994;6.940;2023-03-14T03:33:05;8.30;;;3.40;;
66087;SDS011;52872;52.994;6.940;2023-03-14T03:35:33;7.13;;;2.88;;
66087;SDS011;52872;52.994;6.940;2023-03-14T03:38:00;7.90;;;3.25;;
66087;SDS011;52872;52.994;6.940;2023-03-14T03:40:28;11.38;;;3.35;;
66087;SDS011;52872;52.994;6.940;2023-03-14T03:42:55;7.13;;;3.03;;
66087;SDS011;52872;52.994;6.940;2023-03-14T03:45:22;7.15;;;2.85;;
66087;SDS011;52872;52.994;6.940;2023-03-14T03:47:53;7.10;;;3.05;;
66087;SDS011;52872;52.994;6.940;2023-03-14T03:50:21;7.22;;;2.85;;
66087;SDS011;52872;52.994;6.940;2023-03-14T03:52:49;8.90;;;4.03;;
66087;SDS011;52872;52.994;6.940;2023-03-14T03:55:16;9.60;;;3.60;;
66087;SDS011;52872;52.994;6.940;2023-03-14T03:57:44;7.00;;;3.42;;
66087;SDS011;52872;52.994;6.940;2023-03-14T04:00:11;6.07;;;3.20;;
66087;SDS011;52872;52.994;6.940;2023-03-14T04:02:41;8.30;;;3.65;;
66087;SDS011;52872;52.994;6.940;2023-03-14T04:05:12;8.73;;;4.05;;
66087;SDS011;52872;52.994;6.940;2023-03-14T04:07:45;10.88;;;4.53;;
66087;SDS011;52872;52.994;6.940;2023-03-14T04:10:17;8.23;;;3.20;;
66087;SDS011;52872;52.994;6.940;2023-03-14T04:12:57;7.47;;;3.67;;
66087;SDS011;52872;52.994;6.940;2023-03-14T04:15:27;7.95;;;3.97;;
66087;SDS011;52872;52.994;6.940;2023-03-14T04:17:58;9.07;;;3.67;;
66087;SDS011;52872;52.994;6.940;2023-03-14T04:20:25;10.05;;;3.50;;
66087;SDS011;52872;52.994;6.940;2023-03-14T04:22:53;12.88;;;4.63;;
66087;SDS011;52872;52.994;6.940;2023-03-14T04:25:20;8.48;;;3.97;;
66087;SDS011;52872;52.994;6.940;2023-03-14T04:27:52;8.30;;;4.30;;
66087;SDS011;52872;52.994;6.940;2023-03-14T04:30:23;11.00;;;4.13;;
66087;SDS011;52872;52.994;6.940;2023-03-14T04:32:53;8.45;;;3.97;;
66087;SDS011;52872;52.994;6.940;2023-03-14T04:35:23;13.30;;;4.03;;
66087;SDS011;52872;52.994;6.940;2023-03-14T04:37:53;13.85;;;4.68;;
66087;SDS011;52872;52.994;6.940;2023-03-14T04:40:21;9.52;;;3.25;;
66087;SDS011;52872;52.994;6.940;2023-03-14T04:42:51;8.82;;;3.42;;
66087;SDS011;52872;52.994;6.940;2023-03-14T04:45:19;13.15;;;4.13;;
66087;SDS011;52872;52.994;6.940;2023-03-14T04:47:46;8.52;;;3.28;;
66087;SDS011;52872;52.994;6.940;2023-03-14T04:50:17;9.45;;;3.53;;
66087;SDS011;52872;52.994;6.940;2023-03-14T04:52:44;15.57;;;3.53;;
66087;SDS011;52872;52.994;6.940;2023-03-14T04:55:11;8.75;;;3.38;;
66087;SDS011;52872;52.994;6.940;2023-03-14T04:57:39;8.07;;;3.20;;
66087;SDS011;52872;52.994;6.940;2023-03-14T05:00:08;6.90;;;3.70;;
66087;SDS011;52872;52.994;6.940;2023-03-14T05:02:59;8.57;;;4.18;;
66087;SDS011;52872;52.994;6.940;2023-03-14T05:05:52;9.05;;;4.95;;
66087;SDS011;52872;52.994;6.940;2023-03-14T05:08:51;11.00;;;4.25;;
66087;SDS011;52872;52.994;6.940;2023-03-14T05:11:45;13.10;;;4.75;;
66087;SDS011;52872;52.994;6.940;2023-03-14T05:14:29;9.38;;;4.00;;
66087;SDS011;52872;52.994;6.940;2023-03-14T05:17:19;9.57;;;3.70;;
66087;SDS011;52872;52.994;6.940;2023-03-14T05:20:09;7.00;;;3.47;;
66087;SDS011;52872;52.994;6.940;2023-03-14T05:22:58;9.07;;;5.07;;
66087;SDS011;52872;52.994;6.940;2023-03-14T05:25:43;9.27;;;4.55;;
66087;SDS011;52872;52.994;6.940;2023-03-14T05:28:29;10.05;;;4.78;;
66087;SDS011;52872;52.994;6.940;2023-03-14T05:31:22;13.02;;;5.30;;
66087;SDS011;52872;52.994;6.940;2023-03-14T05:34:02;8.65;;;4.88;;
66087;SDS011;52872;52.994;6.940;2023-03-14T05:36:38;10.10;;;4.70;;
66087;SDS011;52872;52.994;6.940;2023-03-14T05:39:37;9.38;;;4.07;;
66087;SDS011;52872;52.994;6.940;2023-03-14T05:42:25;9.70;;;5.15;;
66087;SDS011;52872;52.994;6.940;2023-03-14T05:45:15;12.38;;;4.40;;
66087;SDS011;52872;52.994;6.940;2023-03-14T05:48:02;6.47;;;3.70;;
66087;SDS011;52872;52.994;6.940;2023-03-14T05:50:41;8.25;;;4.00;;
66087;SDS011;52872;52.994;6.940;2023-03-14T05:53:36;9.35;;;4.60;;
66087;SDS011;52872;52.994;6.940;2023-03-14T05:56:32;12.05;;;4.53;;
66087;SDS011;52872;52.994;6.940;2023-03-14T05:59:09;10.48;;;4.72;;
66087;SDS011;52872;52.994;6.940;2023-03-14T06:01:56;9.90;;;4.55;;
66087;SDS011;52872;52.994;6.940;2023-03-14T06:04:26;15.05;;;5.00;;
66087;SDS011;52872;52.994;6.940;2023-03-14T06:06:57;9.38;;;4.20;;
66087;SDS011;52872;52.994;6.940;2023-03-14T06:09:24;6.18;;;4.50;;
66087;SDS011;52872;52.994;6.940;2023-03-14T06:11:54;8.52;;;4.00;;
66087;SDS011;52872;52.994;6.940;2023-03-14T06:14:22;11.07;;;4.30;;
66087;SDS011;52872;52.994;6.940;2023-03-14T06:16:51;8.45;;;4.63;;
66087;SDS011;52872;52.994;6.940;2023-03-14T06:19:21;10.77;;;4.28;;
66087;SDS011;52872;52.994;6.940;2023-03-14T06:21:48;11.95;;;4.43;;
66087;SDS011;52872;52.994;6.940;2023-03-14T06:24:15;7.32;;;4.35;;
66087;SDS011;52872;52.994;6.940;2023-03-14T06:26:46;11.82;;;4.65;;
66087;SDS011;52872;52.994;6.940;2023-03-14T06:29:13;8.73;;;3.63;;
66087;SDS011;52872;52.994;6.940;2023-03-14T06:31:40;7.75;;;3.97;;
66087;SDS011;52872;52.994;6.940;2023-03-14T06:34:08;8.70;;;4.47;;
66087;SDS011;52872;52.994;6.940;2023-03-14T06:36:35;9.85;;;4.07;;
66087;SDS011;52872;52.994;6.940;2023-03-14T06:39:02;10.25;;;3.92;;
66087;SDS011;52872;52.994;6.940;2023-03-14T06:41:31;9.15;;;3.75;;
66087;SDS011;52872;52.994;6.940;2023-03-14T06:43:59;12.77;;;3.95;;
66087;SDS011;52872;52.994;6.940;2023-03-14T06:46:26;6.60;;;3.10;;
66087;SDS011;52872;52.994;6.940;2023-03-14T06:48:54;9.55;;;3.50;;
66087;SDS011;52872;52.994;6.940;2023-03-14T06:51:21;9.40;;;3.67;;
66087;SDS011;52872;52.994;6.940;2023-03-14T06:53:48;8.55;;;3.45;;
66087;SDS011;52872;52.994;6.940;2023-03-14T06:56:18;5.80;;;3.03;;
66087;SDS011;52872;52.994;6.940;2023-03-14T06:58:45;5.47;;;3.42;;
66087;SDS011;52872;52.994;6.940;2023-03-14T07:01:20;6.97;;;3.53;;
66087;SDS011;52872;52.994;6.940;2023-03-14T07:03:51;8.07;;;3.80;;
66087;SDS011;52872;52.994;6.940;2023-03-14T07:06:18;8.60;;;3.72;;
66087;SDS011;52872;52.994;6.940;2023-03-14T07:08:46;8.60;;;3.35;;
66087;SDS011;52872;52.994;6.940;2023-03-14T07:11:15;7.18;;;3.10;;
66087;SDS011;52872;52.994;6.940;2023-03-14T07:13:43;10.80;;;3.83;;
66087;SDS011;52872;52.994;6.940;2023-03-14T07:16:10;6.22;;;3.53;;
66087;SDS011;52872;52.994;6.940;2023-03-14T07:18:37;7.90;;;3.42;;
66087;SDS011;52872;52.994;6.940;2023-03-14T07:21:08;6.47;;;3.38;;
66087;SDS011;52872;52.994;6.940;2023-03-14T07:23:36;10.43;;;3.67;;
66087;SDS011;52872;52.994;6.940;2023-03-14T07:26:05;5.57;;;3.03;;
66087;SDS011;52872;52.994;6.940;2023-03-14T07:28:33;7.15;;;2.13;;
66087;SDS011;52872;52.994;6.940;2023-03-14T07:31:06;2.28;;;0.88;;
66087;SDS011;52872;52.994;6.940;2023-03-14T07:33:33;5.30;;;1.40;;
66087;SDS011;52872;52.994;6.940;2023-03-14T07:36:01;4.05;;;1.35;;
66087;SDS011;52872;52.994;6.940;2023-03-14T07:38:30;8.45;;;2.25;;
66087;SDS011;52872;52.994;6.940;2023-03-14T07:41:12;4.65;;;1.20;;
66087;SDS011;52872;52.994;6.940;2023-03-14T07:43:47;10.35;;;1.92;;
66087;SDS011;52872;52.994;6.940;2023-03-14T07:46:14;4.03;;;1.08;;
66087;SDS011;52872;52.994;6.940;2023-03-14T07:48:41;5.78;;;1.30;;
66087;SDS011;52872;52.994;6.940;2023-03-14T07:51:08;6.20;;;1.08;;
66087;SDS011;52872;52.994;6.940;2023-03-14T07:53:35;8.73;;;1.35;;
66087;SDS011;52872;52.994;6.940;2023-03-14T07:56:02;4.05;;;0.80;;
66087;SDS011;52872;52.994;6.940;2023-03-14T07:58:29;1.75;;;0.60;;
66087;SDS011;52872;52.994;6.940;2023-03-14T08:00:57;2.30;;;1.00;;
66087;SDS011;52872;52.994;6.940;2023-03-14T08:03:25;3.00;;;0.80;;
66087;SDS011;52872;52.994;6.940;2023-03-14T08:05:52;6.22;;;1.02;;
66087;SDS011;52872;52.994;6.940;2023-03-14T08:08:19;4.90;;;1.05;;
66087;SDS011;52872;52.994;6.940;2023-03-14T08:10:46;3.80;;;1.02;;
66087;SDS011;52872;52.994;6.940;2023-03-14T08:13:13;2.47;;;0.88;;
66087;SDS011;52872;52.994;6.940;2023-03-14T08:15:40;1.60;;;0.60;;
66087;SDS011;52872;52.994;6.940;2023-03-14T08:18:07;2.60;;;1.15;;
66087;SDS011;52872;52.994;6.940;2023-03-14T08:20:35;2.28;;;1.27;;
66087;SDS011;52872;52.994;6.940;2023-03-14T08:23:02;0.93;;;0.90;;
66087;SDS011;52872;52.994;6.940;2023-03-14T08:25:29;1.30;;;1.05;;
66087;SDS011;52872;52.994;6.940;2023-03-14T08:27:56;2.85;;;0.60;;
66087;SDS011;52872;52.994;6.940;2023-03-14T08:30:23;1.55;;;0.70;;
66087;SDS011;52872;52.994;6.940;2023-03-14T08:32:50;1.38;;;0.65;;
66087;SDS011;52872;52.994;6.940;2023-03-14T08:35:18;0.73;;;0.60;;
66087;SDS011;52872;52.994;6.940;2023-03-14T08:37:45;3.00;;;0.50;;
66087;SDS011;52872;52.994;6.940;2023-03-14T08:40:13;3.10;;;0.70;;
66087;SDS011;52872;52.994;6.940;2023-03-14T08:42:40;0.95;;;0.40;;
66087;SDS011;52872;52.994;6.940;2023-03-14T08:45:08;0.73;;;0.57;;
66087;SDS011;52872;52.994;6.940;2023-03-14T08:47:37;1.45;;;0.65;;
66087;SDS011;52872;52.994;6.940;2023-03-14T08:50:04;2.10;;;0.52;;
66087;SDS011;52872;52.994;6.940;2023-03-14T08:52:32;3.50;;;0.95;;
66087;SDS011;52872;52.994;6.940;2023-03-14T08:54:59;0.75;;;0.40;;
66087;SDS011;52872;52.994;6.940;2023-03-14T08:57:26;1.88;;;0.63;;
66087;SDS011;52872;52.994;6.940;2023-03-14T08:59:54;2.28;;;0.63;;
66087;SDS011;52872;52.994;6.940;2023-03-14T09:02:22;0.50;;;0.47;;
66087;SDS011;52872;52.994;6.940;2023-03-14T09:04:50;1.85;;;0.43;;
66087;SDS011;52872;52.994;6.940;2023-03-14T09:07:18;2.22;;;0.70;;
66087;SDS011;52872;52.994;6.940;2023-03-14T09:09:45;2.13;;;0.60;;
66087;SDS011;52872;52.994;6.940;2023-03-14T09:12:12;1.20;;;0.60;;
66087;SDS011;52872;52.994;6.940;2023-03-14T09:14:39;1.70;;;0.60;;
66087;SDS011;52872;52.994;6.940;2023-03-14T09:17:06;2.65;;;0.95;;
66087;SDS011;52872;52.994;6.940;2023-03-14T09:19:34;3.67;;;0.70;;
66087;SDS011;52872;52.994;6.940;2023-03-14T09:22:01;0.70;;;0.70;;
66087;SDS011;52872;52.994;6.940;2023-03-14T09:24:28;2.47;;;0.75;;
66087;SDS011;52872;52.994;6.940;2023-03-14T09:26:55;6.90;;;0.80;;
66087;SDS011;52872;52.994;6.940;2023-03-14T09:29:23;4.10;;;1.17;;
66087;SDS011;52872;52.994;6.940;2023-03-14T09:31:50;5.82;;;1.40;;
66087;SDS011;52872;52.994;6.940;2023-03-14T09:34:17;2.53;;;0.90;;
66087;SDS011;52872;52.994;6.940;2023-03-14T09:36:45;7.57;;;1.42;;
66087;SDS011;52872;52.994;6.940;2023-03-14T09:39:12;5.70;;;1.17;;
66087;SDS011;52872;52.994;6.940;2023-03-14T09:41:39;5.78;;;1.60;;
66087;SDS011;52872;52.994;6.940;2023-03-14T09:46:54;3.80;;;1.27;;
66087;SDS011;52872;52.994;6.940;2023-03-14T09:49:25;4.15;;;1.25;;
66087;SDS011;52872;52.994;6.940;2023-03-14T09:51:56;9.98;;;2.47;;
66087;SDS011;52872;52.994;6.940;2023-03-14T09:54:35;12.20;;;2.47;;
66087;SDS011;52872;52.994;6.940;2023-03-14T09:57:16;7.73;;;1.73;;
66087;SDS011;52872;52.994;6.940;2023-03-14T09:59:45;11.13;;;1.60;;
66087;SDS011;52872;52.994;6.940;2023-03-14T10:04:46;7.72;;;1.55;;
66087;SDS011;52872;52.994;6.940;2023-03-14T10:07:15;7.70;;;1.85;;
66087;SDS011;52872;52.994;6.940;2023-03-14T10:10:08;6.95;;;1.70;;
66087;SDS011;52872;52.994;6.940;2023-03-14T10:12:47;6.72;;;1.73;;
66087;SDS011;52872;52.994;6.940;2023-03-14T10:15:26;13.25;;;1.98;;
66087;SDS011;52872;52.994;6.940;2023-03-14T10:17:59;11.35;;;1.95;;
66087;SDS011;52872;52.994;6.940;2023-03-14T10:25:32;13.23;;;2.67;;
66087;SDS011;52872;52.994;6.940;2023-03-14T10:28:01;11.35;;;2.35;;
66087;SDS011;52872;52.994;6.940;2023-03-14T10:35:59;10.32;;;2.33;;
66087;SDS011;52872;52.994;6.940;2023-03-14T10:38:29;8.18;;;1.75;;
66087;SDS011;52872;52.994;6.940;2023-03-14T10:41:01;10.93;;;2.60;;
66087;SDS011;52872;52.994;6.940;2023-03-14T10:43:40;10.35;;;2.03;;
66087;SDS011;52872;52.994;6.940;2023-03-14T10:46:09;12.02;;;2.67;;
66087;SDS011;52872;52.994;6.940;2023-03-14T10:49:05;10.30;;;2.78;;
66087;SDS011;52872;52.994;6.940;2023-03-14T10:51:32;16.13;;;2.90;;
66087;SDS011;52872;52.994;6.940;2023-03-14T10:54:09;7.82;;;1.85;;
66087;SDS011;52872;52.994;6.940;2023-03-14T10:56:39;10.77;;;2.90;;
66087;SDS011;52872;52.994;6.940;2023-03-14T10:59:07;12.55;;;2.55;;
66087;SDS011;52872;52.994;6.940;2023-03-14T11:01:59;5.00;;;1.80;;
66087;SDS011;52872;52.994;6.940;2023-03-14T11:07:29;8.98;;;2.03;;
66087;SDS011;52872;52.994;6.940;2023-03-14T11:15:56;8.68;;;2.47;;
66087;SDS011;52872;52.994;6.940;2023-03-14T11:21:41;5.50;;;1.95;;
66087;SDS011;52872;52.994;6.940;2023-03-14T11:24:22;8.73;;;2.05;;
66087;SDS011;52872;52.994;6.940;2023-03-14T11:29:48;6.07;;;1.50;;
66087;SDS011;52872;52.994;6.940;2023-03-14T11:32:43;9.63;;;1.73;;
66087;SDS011;52872;52.994;6.940;2023-03-14T11:37:48;5.63;;;2.35;;
66087;SDS011;52872;52.994;6.940;2023-03-14T11:40:23;8.20;;;1.33;;
66087;SDS011;52872;52.994;6.940;2023-03-14T11:43:00;5.13;;;1.23;;
66087;SDS011;52872;52.994;6.940;2023-03-14T11:45:41;5.88;;;1.50;;
66087;SDS011;52872;52.994;6.940;2023-03-14T11:51:01;5.40;;;1.40;;
66087;SDS011;52872;52.994;6.940;2023-03-14T11:56:58;2.67;;;0.95;;
66087;SDS011;52872;52.994;6.940;2023-03-14T11:59:33;1.88;;;0.90;;
66087;SDS011;52872;52.994;6.940;2023-03-14T12:10:55;7.32;;;1.17;;
66087;SDS011;52872;52.994;6.940;2023-03-14T12:13:28;3.43;;;1.00;;
66087;SDS011;52872;52.994;6.940;2023-03-14T12:16:00;3.65;;;0.88;;
66087;SDS011;52872;52.994;6.940;2023-03-14T12:18:38;4.00;;;1.02;;
66087;SDS011;52872;52.994;6.940;2023-03-14T12:21:09;5.68;;;1.20;;
66087;SDS011;52872;52.994;6.940;2023-03-14T12:23:42;2.92;;;1.15;;
66087;SDS011;52872;52.994;6.940;2023-03-14T12:26:15;5.30;;;1.30;;
66087;SDS011;52872;52.994;6.940;2023-03-14T12:29:09;4.85;;;1.20;;
66087;SDS011;52872;52.994;6.940;2023-03-14T12:41:53;5.88;;;1.27;;
66087;SDS011;52872;52.994;6.940;2023-03-14T12:47:00;6.78;;;1.67;;
66087;SDS011;52872;52.994;6.940;2023-03-14T12:49:51;4.70;;;1.10;;
66087;SDS011;52872;52.994;6.940;2023-03-14T13:00:35;6.13;;;1.40;;
66087;SDS011;52872;52.994;6.940;2023-03-14T13:03:20;6.53;;;1.40;;
66087;SDS011;52872;52.994;6.940;2023-03-14T13:11:06;5.78;;;1.85;;
66087;SDS011;52872;52.994;6.940;2023-03-14T13:13:37;6.82;;;1.42;;
66087;SDS011;52872;52.994;6.940;2023-03-14T13:16:10;6.30;;;1.50;;
66087;SDS011;52872;52.994;6.940;2023-03-14T13:18:43;6.07;;;1.90;;
66087;SDS011;52872;52.994;6.940;2023-03-14T13:21:15;4.05;;;1.73;;
66087;SDS011;52872;52.994;6.940;2023-03-14T13:24:03;7.25;;;1.98;;
66087;SDS011;52872;52.994;6.940;2023-03-14T13:26:35;8.43;;;1.95;;
66087;SDS011;52872;52.994;6.940;2023-03-14T13:31:48;8.70;;;1.85;;
66087;SDS011;52872;52.994;6.940;2023-03-14T13:34:19;5.63;;;1.55;;
66087;SDS011;52872;52.994;6.940;2023-03-14T13:36:47;6.75;;;1.50;;
66087;SDS011;52872;52.994;6.940;2023-03-14T13:39:19;9.82;;;1.70;;
66087;SDS011;52872;52.994;6.940;2023-03-14T13:41:52;4.47;;;1.27;;
66087;SDS011;52872;52.994;6.940;2023-03-14T13:47:09;4.90;;;1.25;;
66087;SDS011;52872;52.994;6.940;2023-03-14T13:49:42;3.47;;;1.08;;
66087;SDS011;52872;52.994;6.940;2023-03-14T13:52:29;2.15;;;1.23;;
66087;SDS011;52872;52.994;6.940;2023-03-14T13:54:59;2.72;;;1.10;;
66087;SDS011;52872;52.994;6.940;2023-03-14T13:57:26;4.70;;;1.30;;
66087;SDS011;52872;52.994;6.940;2023-03-14T14:00:01;6.80;;;1.27;;
66087;SDS011;52872;52.994;6.940;2023-03-14T14:02:34;5.47;;;1.40;;
66087;SDS011;52872;52.994;6.940;2023-03-14T14:05:04;5.43;;;1.25;;
66087;SDS011;52872;52.994;6.940;2023-03-14T14:07:31;4.38;;;1.27;;
66087;SDS011;52872;52.994;6.940;2023-03-14T14:09:58;3.33;;;1.23;;
66087;SDS011;52872;52.994;6.940;2023-03-14T14:12:43;4.97;;;1.80;;
66087;SDS011;52872;52.994;6.940;2023-03-14T14:15:21;4.15;;;1.13;;
66087;SDS011;52872;52.994;6.940;2023-03-14T14:17:51;9.30;;;1.33;;
66087;SDS011;52872;52.994;6.940;2023-03-14T14:23:02;6.47;;;1.38;;
66087;SDS011;52872;52.994;6.940;2023-03-14T14:25:36;3.78;;;1.42;;
66087;SDS011;52872;52.994;6.940;2023-03-14T14:28:17;7.00;;;1.98;;
66087;SDS011;52872;52.994;6.940;2023-03-14T14:36:30;7.60;;;1.77;;
66087;SDS011;52872;52.994;6.940;2023-03-14T14:39:25;5.18;;;1.02;;
66087;SDS011;52872;52.994;6.940;2023-03-14T14:41:53;5.32;;;1.52;;
66087;SDS011;52872;52.994;6.940;2023-03-14T14:44:30;11.05;;;1.40;;
66087;SDS011;52872;52.994;6.940;2023-03-14T14:47:02;8.68;;;1.40;;
66087;SDS011;52872;52.994;6.940;2023-03-14T14:49:30;4.50;;;1.40;;
66087;SDS011;52872;52.994;6.940;2023-03-14T14:52:03;7.80;;;2.00;;
66087;SDS011;52872;52.994;6.940;2023-03-14T14:54:43;4.25;;;1.10;;
66087;SDS011;52872;52.994;6.940;2023-03-14T14:57:18;5.57;;;1.33;;
66087;SDS011;52872;52.994;6.940;2023-03-14T14:59:48;5.25;;;1.15;;
66087;SDS011;52872;52.994;6.940;2023-03-14T15:02:29;3.42;;;1.10;;
66087;SDS011;52872;52.994;6.940;2023-03-14T15:05:01;6.45;;;1.20;;
66087;SDS011;52872;52.994;6.940;2023-03-14T15:07:28;1.20;;;0.80;;
66087;SDS011;52872;52.994;6.940;2023-03-14T15:09:55;4.07;;;1.40;;
66087;SDS011;52872;52.994;6.940;2023-03-14T15:12:22;6.80;;;1.33;;
66087;SDS011;52872;52.994;6.940;2023-03-14T15:14:51;3.65;;;1.38;;
66087;SDS011;52872;52.994;6.940;2023-03-14T15:17:17;3.40;;;1.10;;
66087;SDS011;52872;52.994;6.940;2023-03-14T15:19:44;4.20;;;1.23;;
66087;SDS011;52872;52.994;6.940;2023-03-14T15:22:12;4.97;;;1.35;;
66087;SDS011;52872;52.994;6.940;2023-03-14T15:24:42;6.50;;;2.05;;
66087;SDS011;52872;52.994;6.940;2023-03-14T15:27:12;11.43;;;1.70;;
66087;SDS011;52872;52.994;6.940;2023-03-14T15:29:41;5.68;;;1.38;;
66087;SDS011;52872;52.994;6.940;2023-03-14T15:32:12;4.97;;;1.60;;
66087;SDS011;52872;52.994;6.940;2023-03-14T15:34:40;10.05;;;1.73;;
66087;SDS011;52872;52.994;6.940;2023-03-14T15:37:11;4.68;;;1.60;;
66087;SDS011;52872;52.994;6.940;2023-03-14T15:39:39;9.85;;;1.70;;
66087;SDS011;52872;52.994;6.940;2023-03-14T15:42:06;6.40;;;2.17;;
66087;SDS011;52872;52.994;6.940;2023-03-14T15:44:33;5.35;;;1.33;;
66087;SDS011;52872;52.994;6.940;2023-03-14T15:47:00;7.13;;;1.65;;
66087;SDS011;52872;52.994;6.940;2023-03-14T15:49:27;11.10;;;2.05;;
66087;SDS011;52872;52.994;6.940;2023-03-14T15:51:54;8.02;;;2.20;;
66087;SDS011;52872;52.994;6.940;2023-03-14T15:54:23;7.32;;;2.13;;
66087;SDS011;52872;52.994;6.940;2023-03-14T15:56:54;2.25;;;1.17;;
66087;SDS011;52872;52.994;6.940;2023-03-14T15:59:22;3.60;;;1.02;;
66087;SDS011;52872;52.994;6.940;2023-03-14T16:01:50;3.85;;;1.30;;
66087;SDS011;52872;52.994;6.940;2023-03-14T16:04:17;4.88;;;1.17;;
66087;SDS011;52872;52.994;6.940;2023-03-14T16:06:44;1.85;;;1.13;;
66087;SDS011;52872;52.994;6.940;2023-03-14T16:09:12;4.10;;;1.20;;
66087;SDS011;52872;52.994;6.940;2023-03-14T16:11:39;2.90;;;1.00;;
66087;SDS011;52872;52.994;6.940;2023-03-14T16:14:06;3.55;;;1.20;;
66087;SDS011;52872;52.994;6.940;2023-03-14T16:16:33;5.60;;;1.52;;
66087;SDS011;52872;52.994;6.940;2023-03-14T16:19:00;5.65;;;1.40;;
66087;SDS011;52872;52.994;6.940;2023-03-14T16:21:28;6.45;;;1.52;;
66087;SDS011;52872;52.994;6.940;2023-03-14T16:23:55;10.45;;;1.80;;
66087;SDS011;52872;52.994;6.940;2023-03-14T16:26:22;6.75;;;1.30;;
66087;SDS011;52872;52.994;6.940;2023-03-14T16:28:49;6.70;;;1.50;;
66087;SDS011;52872;52.994;6.940;2023-03-14T16:31:17;4.38;;;1.30;;
66087;SDS011;52872;52.994;6.940;2023-03-14T16:33:46;6.95;;;1.73;;
66087;SDS011;52872;52.994;6.940;2023-03-14T16:36:14;5.05;;;1.52;;
66087;SDS011;52872;52.994;6.940;2023-03-14T16:38:41;7.35;;;1.48;;
66087;SDS011;52872;52.994;6.940;2023-03-14T16:41:11;2.67;;;1.20;;
66087;SDS011;52872;52.994;6.940;2023-03-14T16:43:40;4.72;;;1.10;;
66087;SDS011;52872;52.994;6.940;2023-03-14T16:46:09;6.90;;;1.60;;